Elvira+3 — 8598 — position and weather

sailwx.info

Track history (hours):
 
Tides and Currents Weather Stations Pressure Air Temp Water Temp Dewpoint Dewpoint Depression Visibility Wind Speed Wind Dir Waves Ship Positions

Elvira+3

Last reported at 2018-Jun-21 20:00 UTC. Time now 2018-Jun-21 20:02 UTC.
Position N 44°28' E 022°10'.

Length 165 m.

Type: Cargo ship. MMSI: 238493940.

Date/timePositionNaut miles runAvg speedWind from/ knotsBaromVisibWave heightAir tempDewpointWater temp
2018-Jun-21 20:00N 44°28' E 022°10'3 5.6
2018-Jun-21 19:30N 44°29' E 022°06'3 5.8
2018-Jun-21 19:00N 44°32' E 022°04'3 5.8
2018-Jun-21 18:30N 44°34' E 022°02'46 3.2
2018-Jun-21 04:20N 44°42' E 020°58'15 4.7
2018-Jun-21 01:01N 44°48' E 020°38'0 6.5
2018-Jun-21 01:00N 44°48' E 020°38'3 5.6
2018-Jun-21 00:30N 44°51' E 020°38'3 5.5
2018-Jun-21 00:00N 44°51' E 020°34'3 5.8
2018-Jun-20 23:31N 44°50' E 020°30'3 6.1
2018-Jun-20 23:01N 44°50' E 020°26'3 6.4
2018-Jun-20 22:31N 44°52' E 020°22'3 6.1
2018-Jun-20 22:01N 44°55' E 020°20'3 6.7
2018-Jun-20 21:30N 44°57' E 020°17'3 5.6
2018-Jun-20 21:00N 44°60' E 020°19'3 5.7
2018-Jun-20 20:30N 45°02' E 020°22'5 6.7
2018-Jun-20 19:45N 45°06' E 020°18'4 6.5
2018-Jun-20 19:06N 45°10' E 020°14'1 6.8
2018-Jun-20 18:53N 45°11' E 020°12'2 6.2
2018-Jun-20 18:30N 45°11' E 020°09'3 6.9
2018-Jun-20 18:01N 45°10' E 020°04'3 6.6
2018-Jun-20 17:30N 45°11' E 019°60'3 6.4
2018-Jun-20 17:00N 45°13' E 019°56'3 6.5
2018-Jun-20 16:30N 45°15' E 019°54'1 1.0
2018-Jun-20 16:00N 45°16' E 019°53'0 0.0
2018-Jun-20 15:30N 45°16' E 019°53'0 0.0
2018-Jun-20 15:00N 45°16' E 019°53'0 0.0
2018-Jun-20 14:30N 45°16' E 019°53'1 2.5
2018-Jun-20 14:00N 45°16' E 019°51'0 0.0
2018-Jun-20 13:30N 45°16' E 019°51'0 0.2
2018-Jun-20 13:00N 45°16' E 019°51'0 0.0
2018-Jun-20 12:30N 45°16' E 019°51'0 0.0
2018-Jun-20 12:00N 45°16' E 019°51'0 0.0
2018-Jun-20 11:30N 45°16' E 019°51'0 0.1
2018-Jun-20 11:00N 45°16' E 019°51'0 0.1
2018-Jun-20 10:30N 45°16' E 019°51'0 0.0
2018-Jun-20 09:59N 45°16' E 019°51'0 0.0
2018-Jun-20 09:30N 45°16' E 019°51'0 0.0
2018-Jun-20 09:00N 45°16' E 019°51'1 2.4
2018-Jun-20 08:30N 45°16' E 019°53'1 2.5
2018-Jun-20 08:00N 45°16' E 019°51'1 2.4
2018-Jun-20 07:30N 45°16' E 019°53'0 0.1
2018-Jun-20 07:00N 45°16' E 019°53'1 2.3
2018-Jun-20 06:30N 45°16' E 019°51'1 2.4
2018-Jun-20 06:00N 45°16' E 019°53'1 2.2
2018-Jun-20 05:30N 45°16' E 019°51'0 0.0
2018-Jun-20 05:00N 45°16' E 019°51'0 0.0
2018-Jun-20 04:30N 45°16' E 019°51'0 0.0
2018-Jun-20 04:00N 45°16' E 019°51'0 0.0
2018-Jun-20 03:30N 45°16' E 019°51'0 0.0
2018-Jun-20 03:00N 45°16' E 019°51'0 0.0
2018-Jun-20 02:30N 45°16' E 019°51'0 0.0
2018-Jun-20 02:00N 45°16' E 019°51'0 0.0
2018-Jun-20 01:30N 45°16' E 019°51'0 0.0
2018-Jun-20 01:00N 45°16' E 019°51'0 0.0
2018-Jun-20 00:30N 45°16' E 019°51'0 0.0
2018-Jun-20 00:00N 45°16' E 019°51'0 0.0
2018-Jun-19 23:30N 45°16' E 019°51'0 0.0
2018-Jun-19 23:00N 45°16' E 019°51'0 0.0
2018-Jun-19 22:30N 45°16' E 019°51'0 0.0
2018-Jun-19 22:00N 45°16' E 019°51'0 0.0
2018-Jun-19 21:30N 45°16' E 019°51'0 0.0
2018-Jun-19 21:00N 45°16' E 019°51'0 0.0
2018-Jun-19 20:30N 45°16' E 019°51'0 0.0
2018-Jun-19 20:00N 45°16' E 019°51'0 0.0
2018-Jun-19 19:30N 45°16' E 019°51'0 0.1
2018-Jun-19 19:00N 45°16' E 019°51'0 0.0
2018-Jun-19 18:30N 45°16' E 019°51'0 0.0
2018-Jun-19 18:00N 45°16' E 019°51'0 0.0
2018-Jun-19 17:30N 45°16' E 019°51'0 0.0
2018-Jun-19 17:00N 45°16' E 019°51'0 0.0
2018-Jun-19 16:30N 45°16' E 019°51'0 0.0
2018-Jun-19 16:00N 45°16' E 019°51'0 0.0
2018-Jun-19 15:30N 45°16' E 019°51'0 0.0
2018-Jun-19 15:00N 45°16' E 019°51'0 0.0
2018-Jun-19 14:30N 45°16' E 019°51'0 0.0
2018-Jun-19 14:00N 45°16' E 019°51'0 0.0
2018-Jun-19 13:30N 45°16' E 019°51'0 0.0
2018-Jun-19 13:00N 45°16' E 019°51'0 0.0
2018-Jun-19 12:30N 45°16' E 019°51'0 0.0
2018-Jun-19 12:00N 45°16' E 019°51'0 0.0
2018-Jun-19 11:30N 45°16' E 019°51'0 0.0
2018-Jun-19 11:00N 45°16' E 019°51'0 0.0
2018-Jun-19 10:30N 45°16' E 019°51'1 1.6
2018-Jun-19 10:00N 45°16' E 019°52'1 1.0
2018-Jun-19 09:30N 45°16' E 019°53'0 0.1
2018-Jun-19 09:00N 45°16' E 019°53'1 2.5
2018-Jun-19 08:30N 45°16' E 019°51'0 0.0
2018-Jun-19 08:00N 45°16' E 019°51'0 0.1
2018-Jun-19 07:30N 45°16' E 019°51'0 0.0
2018-Jun-19 07:00N 45°16' E 019°51'0 0.0
2018-Jun-19 06:30N 45°16' E 019°51'0 0.0
2018-Jun-19 06:00N 45°16' E 019°51'0 0.0
2018-Jun-19 05:30N 45°16' E 019°51'0 0.0
2018-Jun-19 05:00N 45°16' E 019°51'0 0.0
2018-Jun-19 04:30N 45°16' E 019°51'0 0.0
2018-Jun-19 04:00N 45°16' E 019°51'0 0.0
2018-Jun-19 03:30N 45°16' E 019°51'0 0.0
2018-Jun-19 03:00N 45°16' E 019°51'0 0.0
2018-Jun-19 02:30N 45°16' E 019°51'0 0.0
2018-Jun-19 02:00N 45°16' E 019°51'0 0.0
2018-Jun-19 01:30N 45°16' E 019°51'0 0.0
2018-Jun-19 01:00N 45°16' E 019°51'0 0.0
2018-Jun-19 00:30N 45°16' E 019°51'0 0.0
2018-Jun-19 00:00N 45°16' E 019°51'0 0.0
2018-Jun-18 23:30N 45°16' E 019°51'0 0.0
2018-Jun-18 23:00N 45°16' E 019°51'0 0.0
2018-Jun-18 22:30N 45°16' E 019°51'0 0.0
2018-Jun-18 22:00N 45°16' E 019°51'0 0.0
2018-Jun-18 21:30N 45°16' E 019°51'0 0.0
2018-Jun-18 21:00N 45°16' E 019°51'0 0.0
2018-Jun-18 20:30N 45°16' E 019°51'0 0.0
2018-Jun-18 20:00N 45°16' E 019°51'0 0.0
2018-Jun-18 19:30N 45°16' E 019°51'0 0.0
2018-Jun-18 19:00N 45°16' E 019°51'0 0.0
2018-Jun-18 18:30N 45°16' E 019°51'0 0.0
2018-Jun-18 18:00N 45°16' E 019°51'0 0.0
2018-Jun-18 17:30N 45°16' E 019°51'0 0.0
2018-Jun-18 17:00N 45°16' E 019°51'0 0.1
2018-Jun-18 16:30N 45°16' E 019°51'0 0.0
2018-Jun-18 16:00N 45°16' E 019°51'0 0.0
2018-Jun-18 15:30N 45°16' E 019°51'0 0.0
2018-Jun-18 15:00N 45°16' E 019°51'0 0.0
2018-Jun-18 14:30N 45°16' E 019°51'0 0.0
2018-Jun-18 14:00N 45°16' E 019°51'0 0.0
2018-Jun-18 13:30N 45°16' E 019°51'0 0.0
2018-Jun-18 13:00N 45°16' E 019°51'0 0.0
2018-Jun-18 12:30N 45°16' E 019°51'0 0.0
2018-Jun-18 12:00N 45°16' E 019°51'0 0.0
2018-Jun-18 11:30N 45°16' E 019°51'0 0.0
2018-Jun-18 11:00N 45°16' E 019°51'0 0.0
2018-Jun-18 10:30N 45°16' E 019°51'0 0.0
2018-Jun-18 10:00N 45°16' E 019°51'0 0.0
2018-Jun-18 09:30N 45°16' E 019°51'0 0.0
2018-Jun-18 09:00N 45°16' E 019°51'0 0.0
2018-Jun-18 08:30N 45°16' E 019°51'0 0.0
2018-Jun-18 08:00N 45°16' E 019°51'0 0.0
2018-Jun-18 07:30N 45°16' E 019°51'0 0.0
2018-Jun-18 07:00N 45°16' E 019°51'0 0.0
2018-Jun-18 06:30N 45°16' E 019°51'0 0.1
2018-Jun-18 06:00N 45°16' E 019°51'0 0.0
2018-Jun-18 05:30N 45°16' E 019°51'1 1.7
2018-Jun-18 05:00N 45°16' E 019°53'0 0.9
2018-Jun-18 04:30N 45°16' E 019°53'0 0.0
2018-Jun-18 04:00N 45°16' E 019°53'0 0.0
2018-Jun-18 03:30N 45°16' E 019°53'0 0.0
2018-Jun-18 03:00N 45°16' E 019°53'0 0.0
2018-Jun-18 02:30N 45°16' E 019°53'0 0.0
2018-Jun-18 02:00N 45°16' E 019°53'0 0.0
2018-Jun-18 01:30N 45°16' E 019°53'0 0.0
2018-Jun-18 01:00N 45°16' E 019°53'0 0.0
2018-Jun-18 00:30N 45°16' E 019°53'0 0.0
2018-Jun-18 00:00N 45°16' E 019°53'0 0.0
2018-Jun-17 23:30N 45°16' E 019°53'0 0.0
2018-Jun-17 23:00N 45°16' E 019°53'0 0.0
2018-Jun-17 22:30N 45°16' E 019°53'0 0.0
2018-Jun-17 22:00N 45°16' E 019°53'0 0.0
2018-Jun-17 21:30N 45°16' E 019°53'0 0.0
2018-Jun-17 21:00N 45°16' E 019°53'0 0.1
2018-Jun-17 20:30N 45°16' E 019°53'2 3.7
2018-Jun-17 20:00N 45°14' E 019°55'2 4.3
2018-Jun-17 19:30N 45°12' E 019°57'2 4.3
2018-Jun-17 19:00N 45°11' E 019°59'2 4.5
2018-Jun-17 18:30N 45°10' E 020°02'2 4.0
2018-Jun-17 18:00N 45°10' E 020°05'2 4.1
2018-Jun-17 17:30N 45°10' E 020°08'2 4.3
2018-Jun-17 17:00N 45°11' E 020°10'2 4.0
2018-Jun-17 16:30N 45°10' E 020°13'2 4.2
2018-Jun-17 16:00N 45°09' E 020°15'2 4.3
2018-Jun-17 15:29N 45°07' E 020°17'2 4.4
2018-Jun-17 15:01N 45°05' E 020°19'3 4.0
2018-Jun-17 14:20N 45°03' E 020°21'1 4.2
2018-Jun-17 14:00N 45°02' E 020°22'2 3.5
2018-Jun-17 13:30N 45°00' E 020°21'2 3.8
2018-Jun-17 13:00N 44°60' E 020°19'2 4.2
2018-Jun-17 12:30N 44°58' E 020°17'2 3.6
2018-Jun-17 12:01N 44°56' E 020°18'2 4.2
2018-Jun-17 11:30N 44°55' E 020°20'2 4.1
2018-Jun-17 11:01N 44°53' E 020°22'2 4.1
2018-Jun-17 10:31N 44°51' E 020°24'2 4.6
2018-Jun-17 10:00N 44°50' E 020°27'2 4.2
2018-Jun-17 09:30N 44°50' E 020°30'2 4.6
2018-Jun-17 09:00N 44°50' E 020°33'2 4.5
2018-Jun-17 08:30N 44°51' E 020°36'2 3.9
2018-Jun-17 08:00N 44°51' E 020°38'2 3.9
2018-Jun-17 07:31N 44°49' E 020°38'2 4.8
2018-Jun-17 07:00N 44°46' E 020°38'2 4.3
2018-Jun-17 06:30N 44°45' E 020°39'2 4.3
2018-Jun-17 06:00N 44°43' E 020°41'2 4.5
2018-Jun-17 05:30N 44°41' E 020°43'2 4.7
2018-Jun-17 05:00N 44°40' E 020°46'2 4.4
2018-Jun-17 04:30N 44°39' E 020°49'2 4.7
2018-Jun-17 04:00N 44°40' E 020°52'2 4.7
2018-Jun-17 03:30N 44°41' E 020°56'1 2.0
2018-Jun-17 03:00N 44°41' E 020°57'0 0.0
2018-Jun-16 21:33N 44°41' E 020°57'0 0.0
2018-Jun-16 21:30N 44°41' E 020°57'0 0.0
2018-Jun-16 21:00N 44°41' E 020°57'0 0.0
2018-Jun-16 20:30N 44°41' E 020°57'0 0.0
2018-Jun-16 20:00N 44°41' E 020°57'0 0.0
2018-Jun-16 19:30N 44°41' E 020°57'0 0.1
2018-Jun-16 19:00N 44°41' E 020°57'0 0.0
2018-Jun-16 18:30N 44°41' E 020°57'0 0.0
2018-Jun-16 18:01N 44°41' E 020°57'0 0.0
2018-Jun-16 17:30N 44°41' E 020°57'0 0.0
2018-Jun-16 17:00N 44°41' E 020°57'0 0.0
2018-Jun-16 16:30N 44°41' E 020°57'0 0.0
2018-Jun-16 16:00N 44°41' E 020°57'0 0.0
2018-Jun-16 15:30N 44°41' E 020°57'0 0.3
2018-Jun-16 15:00N 44°41' E 020°57'0 0.3
2018-Jun-16 14:27N 44°41' E 020°57'0 0.0
2018-Jun-16 14:00N 44°41' E 020°57'0 0.0
2018-Jun-16 13:30N 44°41' E 020°57'0 0.0
2018-Jun-16 13:00N 44°41' E 020°57'0 0.0
2018-Jun-16 12:30N 44°41' E 020°57'0 0.0
2018-Jun-16 11:55N 44°41' E 020°57'0 0.0
2018-Jun-16 11:30N 44°41' E 020°57'0 0.0
2018-Jun-16 11:00N 44°41' E 020°57'0 0.0
2018-Jun-16 10:30N 44°41' E 020°57'0 0.0
2018-Jun-15 20:48N 44°41' E 020°57'0 0.0
2018-Jun-15 20:30N 44°41' E 020°57'0 0.0
2018-Jun-15 20:00N 44°41' E 020°57'0 0.0
2018-Jun-15 19:30N 44°41' E 020°57'0 0.0
2018-Jun-15 19:00N 44°41' E 020°57'0 0.0
2018-Jun-14 22:13N 44°41' E 020°57'0 0.0
2018-Jun-14 22:00N 44°41' E 020°57'0 0.0
2018-Jun-14 21:30N 44°41' E 020°57'0 0.0
2018-Jun-14 21:00N 44°41' E 020°57'0 0.0
2018-Jun-14 20:31N 44°41' E 020°57'0 0.0
2018-Jun-14 20:00N 44°41' E 020°57'0 0.0
2018-Jun-14 19:30N 44°41' E 020°57'0 0.0
2018-Jun-14 19:00N 44°41' E 020°57'0 0.0
2018-Jun-14 18:30N 44°41' E 020°57'0 0.0
2018-Jun-14 18:00N 44°41' E 020°57'0 0.0
2018-Jun-14 17:30N 44°41' E 020°57'0 0.0
2018-Jun-14 17:00N 44°41' E 020°57'0 0.0
2018-Jun-14 16:30N 44°41' E 020°57'0 0.0
2018-Jun-14 16:01N 44°41' E 020°57'0 0.0
2018-Jun-14 15:31N 44°41' E 020°57'0 0.0
2018-Jun-14 15:01N 44°41' E 020°57'0 0.0
2018-Jun-14 14:31N 44°41' E 020°57'0 0.0
2018-Jun-14 14:01N 44°41' E 020°57'0 0.0
2018-Jun-14 13:31N 44°41' E 020°57'0 0.0
2018-Jun-14 13:00N 44°41' E 020°57'0 0.0
2018-Jun-14 12:30N 44°41' E 020°57'0 0.0
2018-Jun-14 12:00N 44°41' E 020°57'0 0.0
2018-Jun-14 11:31N 44°41' E 020°57'0 0.0
2018-Jun-14 11:00N 44°41' E 020°57'0 0.0
2018-Jun-14 10:30N 44°41' E 020°57'0 0.0
2018-Jun-14 10:01N 44°41' E 020°57'0 0.0
2018-Jun-14 09:29N 44°41' E 020°57'0 0.0
2018-Jun-14 09:00N 44°41' E 020°57'0 0.0
2018-Jun-14 08:30N 44°41' E 020°57'0 0.0
2018-Jun-14 08:00N 44°41' E 020°57'0 0.0
2018-Jun-14 07:17N 44°41' E 020°57'0 0.0
2018-Jun-13 23:38N 44°41' E 020°57'0 0.0
2018-Jun-13 23:30N 44°41' E 020°57'0 0.0
2018-Jun-13 23:00N 44°41' E 020°57'0 0.0
2018-Jun-13 22:30N 44°41' E 020°57'0 0.0
2018-Jun-13 22:00N 44°41' E 020°57'0 0.0
2018-Jun-13 21:30N 44°41' E 020°57'0 0.0
2018-Jun-13 21:00N 44°41' E 020°57'0 0.0
2018-Jun-13 20:30N 44°41' E 020°57'0 0.0
2018-Jun-13 20:00N 44°41' E 020°57'0 0.0
2018-Jun-13 19:29N 44°41' E 020°57'0 0.0
2018-Jun-13 19:00N 44°41' E 020°57'0 0.0
2018-Jun-13 18:31N 44°41' E 020°57'0 0.0
2018-Jun-13 18:00N 44°41' E 020°57'0 0.0
2018-Jun-13 17:30N 44°41' E 020°57'0 0.0
2018-Jun-13 17:01N 44°41' E 020°57'0 0.0
2018-Jun-13 16:30N 44°41' E 020°57'0 0.0
2018-Jun-13 16:00N 44°41' E 020°57'0 0.0
2018-Jun-13 15:30N 44°41' E 020°57'0 0.0
2018-Jun-13 15:00N 44°41' E 020°57'0 0.0
2018-Jun-13 14:30N 44°41' E 020°57'0 0.0
2018-Jun-13 14:00N 44°41' E 020°57'0 0.0
2018-Jun-13 13:30N 44°41' E 020°57'0 0.0
2018-Jun-13 13:00N 44°41' E 020°57'0 0.0
2018-Jun-13 12:29N 44°41' E 020°57'0 0.0
2018-Jun-13 12:00N 44°41' E 020°57'0 0.0
2018-Jun-13 11:30N 44°41' E 020°57'0 0.0
2018-Jun-13 11:00N 44°41' E 020°57'0 0.0
2018-Jun-13 10:30N 44°41' E 020°57'0 0.0
2018-Jun-13 09:31N 44°41' E 020°57'0 0.0
2018-Jun-13 09:29N 44°41' E 020°57'0 0.0
2018-Jun-12 21:52N 44°41' E 020°57'0 0.0
2018-Jun-12 21:30N 44°41' E 020°57'0 0.0
2018-Jun-12 21:00N 44°41' E 020°57'0 0.0
2018-Jun-12 20:30N 44°41' E 020°57'0 0.0
2018-Jun-12 20:00N 44°41' E 020°57'0 0.0
2018-Jun-12 19:30N 44°41' E 020°57'0 0.0
2018-Jun-12 19:00N 44°41' E 020°57'0 0.0
2018-Jun-12 18:30N 44°41' E 020°57'0 0.0
2018-Jun-12 18:00N 44°41' E 020°57'0 0.0
2018-Jun-12 17:30N 44°41' E 020°57'0 0.0
2018-Jun-12 16:58N 44°41' E 020°57'0 0.0
2018-Jun-12 16:30N 44°41' E 020°57'0 0.0
2018-Jun-12 16:00N 44°41' E 020°57'0 0.0
2018-Jun-12 15:30N 44°41' E 020°57'0 0.0
2018-Jun-12 15:00N 44°41' E 020°57'0 0.0
2018-Jun-12 14:30N 44°41' E 020°57'0 0.0
2018-Jun-12 14:00N 44°41' E 020°57'0 0.0
2018-Jun-12 13:30N 44°41' E 020°57'0 0.0
2018-Jun-12 13:00N 44°41' E 020°57'0 0.0
2018-Jun-12 12:31N 44°41' E 020°57'0 0.0
2018-Jun-12 12:00N 44°41' E 020°57'0 0.0
2018-Jun-12 11:30N 44°41' E 020°57'0 0.3
2018-Jun-12 11:01N 44°41' E 020°57'0 0.0
2018-Jun-12 10:30N 44°41' E 020°57'0 0.0
2018-Jun-12 10:00N 44°41' E 020°57'4 2.2
2018-Jun-12 08:13N 44°43' E 021°01'21 1.8
2018-Jun-11 20:14N 44°46' E 021°31'  
Track history (hours):
 
Tides and Currents Weather Stations Pressure Air Temp Water Temp Dewpoint Dewpoint Depression Visibility Wind Speed Wind Dir Waves Ship Positions

Elvira+3

Last reported at 2018-Jun-21 20:00 UTC. Time now 2018-Jun-21 20:02 UTC.
Position N 44°28' E 022°10'.

Length 165 m.

Type: Cargo ship. MMSI: 238493940.

Date/timePositionNaut miles runAvg speedWind from/ knotsBaromVisibWave heightAir tempDewpointWater temp
2018-Jun-21 20:00N 44°28' E 022°10'3 5.6
2018-Jun-21 19:30N 44°29' E 022°06'3 5.8
2018-Jun-21 19:00N 44°32' E 022°04'3 5.8
2018-Jun-21 18:30N 44°34' E 022°02'46 3.2
2018-Jun-21 04:20N 44°42' E 020°58'15 4.7
2018-Jun-21 01:01N 44°48' E 020°38'0 6.5
2018-Jun-21 01:00N 44°48' E 020°38'3 5.6
2018-Jun-21 00:30N 44°51' E 020°38'3 5.5
2018-Jun-21 00:00N 44°51' E 020°34'3 5.8
2018-Jun-20 23:31N 44°50' E 020°30'3 6.1
2018-Jun-20 23:01N 44°50' E 020°26'3 6.4
2018-Jun-20 22:31N 44°52' E 020°22'3 6.1
2018-Jun-20 22:01N 44°55' E 020°20'3 6.7
2018-Jun-20 21:30N 44°57' E 020°17'3 5.6
2018-Jun-20 21:00N 44°60' E 020°19'3 5.7
2018-Jun-20 20:30N 45°02' E 020°22'5 6.7
2018-Jun-20 19:45N 45°06' E 020°18'4 6.5
2018-Jun-20 19:06N 45°10' E 020°14'1 6.8
2018-Jun-20 18:53N 45°11' E 020°12'2 6.2
2018-Jun-20 18:30N 45°11' E 020°09'3 6.9
2018-Jun-20 18:01N 45°10' E 020°04'3 6.6
2018-Jun-20 17:30N 45°11' E 019°60'3 6.4
2018-Jun-20 17:00N 45°13' E 019°56'3 6.5
2018-Jun-20 16:30N 45°15' E 019°54'1 1.0
2018-Jun-20 16:00N 45°16' E 019°53'0 0.0
2018-Jun-20 15:30N 45°16' E 019°53'0 0.0
2018-Jun-20 15:00N 45°16' E 019°53'0 0.0
2018-Jun-20 14:30N 45°16' E 019°53'1 2.5
2018-Jun-20 14:00N 45°16' E 019°51'0 0.0
2018-Jun-20 13:30N 45°16' E 019°51'0 0.2
2018-Jun-20 13:00N 45°16' E 019°51'0 0.0
2018-Jun-20 12:30N 45°16' E 019°51'0 0.0
2018-Jun-20 12:00N 45°16' E 019°51'0 0.0
2018-Jun-20 11:30N 45°16' E 019°51'0 0.1
2018-Jun-20 11:00N 45°16' E 019°51'0 0.1
2018-Jun-20 10:30N 45°16' E 019°51'0 0.0
2018-Jun-20 09:59N 45°16' E 019°51'0 0.0
2018-Jun-20 09:30N 45°16' E 019°51'0 0.0
2018-Jun-20 09:00N 45°16' E 019°51'1 2.4
2018-Jun-20 08:30N 45°16' E 019°53'1 2.5
2018-Jun-20 08:00N 45°16' E 019°51'1 2.4
2018-Jun-20 07:30N 45°16' E 019°53'0 0.1
2018-Jun-20 07:00N 45°16' E 019°53'1 2.3
2018-Jun-20 06:30N 45°16' E 019°51'1 2.4
2018-Jun-20 06:00N 45°16' E 019°53'1 2.2
2018-Jun-20 05:30N 45°16' E 019°51'0 0.0
2018-Jun-20 05:00N 45°16' E 019°51'0 0.0
2018-Jun-20 04:30N 45°16' E 019°51'0 0.0
2018-Jun-20 04:00N 45°16' E 019°51'0 0.0
2018-Jun-20 03:30N 45°16' E 019°51'0 0.0
2018-Jun-20 03:00N 45°16' E 019°51'0 0.0
2018-Jun-20 02:30N 45°16' E 019°51'0 0.0
2018-Jun-20 02:00N 45°16' E 019°51'0 0.0
2018-Jun-20 01:30N 45°16' E 019°51'0 0.0
2018-Jun-20 01:00N 45°16' E 019°51'0 0.0
2018-Jun-20 00:30N 45°16' E 019°51'0 0.0
2018-Jun-20 00:00N 45°16' E 019°51'0 0.0
2018-Jun-19 23:30N 45°16' E 019°51'0 0.0
2018-Jun-19 23:00N 45°16' E 019°51'0 0.0
2018-Jun-19 22:30N 45°16' E 019°51'0 0.0
2018-Jun-19 22:00N 45°16' E 019°51'0 0.0
2018-Jun-19 21:30N 45°16' E 019°51'0 0.0
2018-Jun-19 21:00N 45°16' E 019°51'0 0.0
2018-Jun-19 20:30N 45°16' E 019°51'0 0.0
2018-Jun-19 20:00N 45°16' E 019°51'0 0.0
2018-Jun-19 19:30N 45°16' E 019°51'0 0.1
2018-Jun-19 19:00N 45°16' E 019°51'0 0.0
2018-Jun-19 18:30N 45°16' E 019°51'0 0.0
2018-Jun-19 18:00N 45°16' E 019°51'0 0.0
2018-Jun-19 17:30N 45°16' E 019°51'0 0.0
2018-Jun-19 17:00N 45°16' E 019°51'0 0.0
2018-Jun-19 16:30N 45°16' E 019°51'0 0.0
2018-Jun-19 16:00N 45°16' E 019°51'0 0.0
2018-Jun-19 15:30N 45°16' E 019°51'0 0.0
2018-Jun-19 15:00N 45°16' E 019°51'0 0.0
2018-Jun-19 14:30N 45°16' E 019°51'0 0.0
2018-Jun-19 14:00N 45°16' E 019°51'0 0.0
2018-Jun-19 13:30N 45°16' E 019°51'0 0.0
2018-Jun-19 13:00N 45°16' E 019°51'0 0.0
2018-Jun-19 12:30N 45°16' E 019°51'0 0.0
2018-Jun-19 12:00N 45°16' E 019°51'0 0.0
2018-Jun-19 11:30N 45°16' E 019°51'0 0.0
2018-Jun-19 11:00N 45°16' E 019°51'0 0.0
2018-Jun-19 10:30N 45°16' E 019°51'1 1.6
2018-Jun-19 10:00N 45°16' E 019°52'1 1.0
2018-Jun-19 09:30N 45°16' E 019°53'0 0.1
2018-Jun-19 09:00N 45°16' E 019°53'1 2.5
2018-Jun-19 08:30N 45°16' E 019°51'0 0.0
2018-Jun-19 08:00N 45°16' E 019°51'0 0.1
2018-Jun-19 07:30N 45°16' E 019°51'0 0.0
2018-Jun-19 07:00N 45°16' E 019°51'0 0.0
2018-Jun-19 06:30N 45°16' E 019°51'0 0.0
2018-Jun-19 06:00N 45°16' E 019°51'0 0.0
2018-Jun-19 05:30N 45°16' E 019°51'0 0.0
2018-Jun-19 05:00N 45°16' E 019°51'0 0.0
2018-Jun-19 04:30N 45°16' E 019°51'0 0.0
2018-Jun-19 04:00N 45°16' E 019°51'0 0.0
2018-Jun-19 03:30N 45°16' E 019°51'0 0.0
2018-Jun-19 03:00N 45°16' E 019°51'0 0.0
2018-Jun-19 02:30N 45°16' E 019°51'0 0.0
2018-Jun-19 02:00N 45°16' E 019°51'0 0.0
2018-Jun-19 01:30N 45°16' E 019°51'0 0.0
2018-Jun-19 01:00N 45°16' E 019°51'0 0.0
2018-Jun-19 00:30N 45°16' E 019°51'0 0.0
2018-Jun-19 00:00N 45°16' E 019°51'0 0.0
2018-Jun-18 23:30N 45°16' E 019°51'0 0.0
2018-Jun-18 23:00N 45°16' E 019°51'0 0.0
2018-Jun-18 22:30N 45°16' E 019°51'0 0.0
2018-Jun-18 22:00N 45°16' E 019°51'0 0.0
2018-Jun-18 21:30N 45°16' E 019°51'0 0.0
2018-Jun-18 21:00N 45°16' E 019°51'0 0.0
2018-Jun-18 20:30N 45°16' E 019°51'0 0.0
2018-Jun-18 20:00N 45°16' E 019°51'0 0.0
2018-Jun-18 19:30N 45°16' E 019°51'0 0.0
2018-Jun-18 19:00N 45°16' E 019°51'0 0.0
2018-Jun-18 18:30N 45°16' E 019°51'0 0.0
2018-Jun-18 18:00N 45°16' E 019°51'0 0.0
2018-Jun-18 17:30N 45°16' E 019°51'0 0.0
2018-Jun-18 17:00N 45°16' E 019°51'0 0.1
2018-Jun-18 16:30N 45°16' E 019°51'0 0.0
2018-Jun-18 16:00N 45°16' E 019°51'0 0.0
2018-Jun-18 15:30N 45°16' E 019°51'0 0.0
2018-Jun-18 15:00N 45°16' E 019°51'0 0.0
2018-Jun-18 14:30N 45°16' E 019°51'0 0.0
2018-Jun-18 14:00N 45°16' E 019°51'0 0.0
2018-Jun-18 13:30N 45°16' E 019°51'0 0.0
2018-Jun-18 13:00N 45°16' E 019°51'0 0.0
2018-Jun-18 12:30N 45°16' E 019°51'0 0.0
2018-Jun-18 12:00N 45°16' E 019°51'0 0.0
2018-Jun-18 11:30N 45°16' E 019°51'0 0.0
2018-Jun-18 11:00N 45°16' E 019°51'0 0.0
2018-Jun-18 10:30N 45°16' E 019°51'0 0.0
2018-Jun-18 10:00N 45°16' E 019°51'0 0.0
2018-Jun-18 09:30N 45°16' E 019°51'0 0.0
2018-Jun-18 09:00N 45°16' E 019°51'0 0.0
2018-Jun-18 08:30N 45°16' E 019°51'0 0.0
2018-Jun-18 08:00N 45°16' E 019°51'0 0.0
2018-Jun-18 07:30N 45°16' E 019°51'0 0.0
2018-Jun-18 07:00N 45°16' E 019°51'0 0.0
2018-Jun-18 06:30N 45°16' E 019°51'0 0.1
2018-Jun-18 06:00N 45°16' E 019°51'0 0.0
2018-Jun-18 05:30N 45°16' E 019°51'1 1.7
2018-Jun-18 05:00N 45°16' E 019°53'0 0.9
2018-Jun-18 04:30N 45°16' E 019°53'0 0.0
2018-Jun-18 04:00N 45°16' E 019°53'0 0.0
2018-Jun-18 03:30N 45°16' E 019°53'0 0.0
2018-Jun-18 03:00N 45°16' E 019°53'0 0.0
2018-Jun-18 02:30N 45°16' E 019°53'0 0.0
2018-Jun-18 02:00N 45°16' E 019°53'0 0.0
2018-Jun-18 01:30N 45°16' E 019°53'0 0.0
2018-Jun-18 01:00N 45°16' E 019°53'0 0.0
2018-Jun-18 00:30N 45°16' E 019°53'0 0.0
2018-Jun-18 00:00N 45°16' E 019°53'0 0.0
2018-Jun-17 23:30N 45°16' E 019°53'0 0.0
2018-Jun-17 23:00N 45°16' E 019°53'0 0.0
2018-Jun-17 22:30N 45°16' E 019°53'0 0.0
2018-Jun-17 22:00N 45°16' E 019°53'0 0.0
2018-Jun-17 21:30N 45°16' E 019°53'0 0.0
2018-Jun-17 21:00N 45°16' E 019°53'0 0.1
2018-Jun-17 20:30N 45°16' E 019°53'2 3.7
2018-Jun-17 20:00N 45°14' E 019°55'2 4.3
2018-Jun-17 19:30N 45°12' E 019°57'2 4.3
2018-Jun-17 19:00N 45°11' E 019°59'2 4.5
2018-Jun-17 18:30N 45°10' E 020°02'2 4.0
2018-Jun-17 18:00N 45°10' E 020°05'2 4.1
2018-Jun-17 17:30N 45°10' E 020°08'2 4.3
2018-Jun-17 17:00N 45°11' E 020°10'2 4.0
2018-Jun-17 16:30N 45°10' E 020°13'2 4.2
2018-Jun-17 16:00N 45°09' E 020°15'2 4.3
2018-Jun-17 15:29N 45°07' E 020°17'2 4.4
2018-Jun-17 15:01N 45°05' E 020°19'3 4.0
2018-Jun-17 14:20N 45°03' E 020°21'1 4.2
2018-Jun-17 14:00N 45°02' E 020°22'2 3.5
2018-Jun-17 13:30N 45°00' E 020°21'2 3.8
2018-Jun-17 13:00N 44°60' E 020°19'2 4.2
2018-Jun-17 12:30N 44°58' E 020°17'2 3.6
2018-Jun-17 12:01N 44°56' E 020°18'2 4.2
2018-Jun-17 11:30N 44°55' E 020°20'2 4.1
2018-Jun-17 11:01N 44°53' E 020°22'2 4.1
2018-Jun-17 10:31N 44°51' E 020°24'2 4.6
2018-Jun-17 10:00N 44°50' E 020°27'2 4.2
2018-Jun-17 09:30N 44°50' E 020°30'2 4.6
2018-Jun-17 09:00N 44°50' E 020°33'2 4.5
2018-Jun-17 08:30N 44°51' E 020°36'2 3.9
2018-Jun-17 08:00N 44°51' E 020°38'2 3.9
2018-Jun-17 07:31N 44°49' E 020°38'2 4.8
2018-Jun-17 07:00N 44°46' E 020°38'2 4.3
2018-Jun-17 06:30N 44°45' E 020°39'2 4.3
2018-Jun-17 06:00N 44°43' E 020°41'2 4.5
2018-Jun-17 05:30N 44°41' E 020°43'2 4.7
2018-Jun-17 05:00N 44°40' E 020°46'2 4.4
2018-Jun-17 04:30N 44°39' E 020°49'2 4.7
2018-Jun-17 04:00N 44°40' E 020°52'2 4.7
2018-Jun-17 03:30N 44°41' E 020°56'1 2.0
2018-Jun-17 03:00N 44°41' E 020°57'0 0.0
2018-Jun-16 21:33N 44°41' E 020°57'0 0.0
2018-Jun-16 21:30N 44°41' E 020°57'0 0.0
2018-Jun-16 21:00N 44°41' E 020°57'0 0.0
2018-Jun-16 20:30N 44°41' E 020°57'0 0.0
2018-Jun-16 20:00N 44°41' E 020°57'0 0.0
2018-Jun-16 19:30N 44°41' E 020°57'0 0.1
2018-Jun-16 19:00N 44°41' E 020°57'0 0.0
2018-Jun-16 18:30N 44°41' E 020°57'0 0.0
2018-Jun-16 18:01N 44°41' E 020°57'0 0.0
2018-Jun-16 17:30N 44°41' E 020°57'0 0.0
2018-Jun-16 17:00N 44°41' E 020°57'0 0.0
2018-Jun-16 16:30N 44°41' E 020°57'0 0.0
2018-Jun-16 16:00N 44°41' E 020°57'0 0.0
2018-Jun-16 15:30N 44°41' E 020°57'0 0.3
2018-Jun-16 15:00N 44°41' E 020°57'0 0.3
2018-Jun-16 14:27N 44°41' E 020°57'0 0.0
2018-Jun-16 14:00N 44°41' E 020°57'0 0.0
2018-Jun-16 13:30N 44°41' E 020°57'0 0.0
2018-Jun-16 13:00N 44°41' E 020°57'0 0.0
2018-Jun-16 12:30N 44°41' E 020°57'0 0.0
2018-Jun-16 11:55N 44°41' E 020°57'0 0.0
2018-Jun-16 11:30N 44°41' E 020°57'0 0.0
2018-Jun-16 11:00N 44°41' E 020°57'0 0.0
2018-Jun-16 10:30N 44°41' E 020°57'0 0.0
2018-Jun-15 20:48N 44°41' E 020°57'0 0.0
2018-Jun-15 20:30N 44°41' E 020°57'0 0.0
2018-Jun-15 20:00N 44°41' E 020°57'0 0.0
2018-Jun-15 19:30N 44°41' E 020°57'0 0.0
2018-Jun-15 19:00N 44°41' E 020°57'0 0.0
2018-Jun-14 22:13N 44°41' E 020°57'0 0.0
2018-Jun-14 22:00N 44°41' E 020°57'0 0.0
2018-Jun-14 21:30N 44°41' E 020°57'0 0.0
2018-Jun-14 21:00N 44°41' E 020°57'0 0.0
2018-Jun-14 20:31N 44°41' E 020°57'0 0.0
2018-Jun-14 20:00N 44°41' E 020°57'0 0.0
2018-Jun-14 19:30N 44°41' E 020°57'0 0.0
2018-Jun-14 19:00N 44°41' E 020°57'0 0.0
2018-Jun-14 18:30N 44°41' E 020°57'0 0.0
2018-Jun-14 18:00N 44°41' E 020°57'0 0.0
2018-Jun-14 17:30N 44°41' E 020°57'0 0.0
2018-Jun-14 17:00N 44°41' E 020°57'0 0.0
2018-Jun-14 16:30N 44°41' E 020°57'0 0.0
2018-Jun-14 16:01N 44°41' E 020°57'0 0.0
2018-Jun-14 15:31N 44°41' E 020°57'0 0.0
2018-Jun-14 15:01N 44°41' E 020°57'0 0.0
2018-Jun-14 14:31N 44°41' E 020°57'0 0.0
2018-Jun-14 14:01N 44°41' E 020°57'0 0.0
2018-Jun-14 13:31N 44°41' E 020°57'0 0.0
2018-Jun-14 13:00N 44°41' E 020°57'0 0.0
2018-Jun-14 12:30N 44°41' E 020°57'0 0.0
2018-Jun-14 12:00N 44°41' E 020°57'0 0.0
2018-Jun-14 11:31N 44°41' E 020°57'0 0.0
2018-Jun-14 11:00N 44°41' E 020°57'0 0.0
2018-Jun-14 10:30N 44°41' E 020°57'0 0.0
2018-Jun-14 10:01N 44°41' E 020°57'0 0.0
2018-Jun-14 09:29N 44°41' E 020°57'0 0.0
2018-Jun-14 09:00N 44°41' E 020°57'0 0.0
2018-Jun-14 08:30N 44°41' E 020°57'0 0.0
2018-Jun-14 08:00N 44°41' E 020°57'0 0.0
2018-Jun-14 07:17N 44°41' E 020°57'0 0.0
2018-Jun-13 23:38N 44°41' E 020°57'0 0.0
2018-Jun-13 23:30N 44°41' E 020°57'0 0.0
2018-Jun-13 23:00N 44°41' E 020°57'0 0.0
2018-Jun-13 22:30N 44°41' E 020°57'0 0.0
2018-Jun-13 22:00N 44°41' E 020°57'0 0.0
2018-Jun-13 21:30N 44°41' E 020°57'0 0.0
2018-Jun-13 21:00N 44°41' E 020°57'0 0.0
2018-Jun-13 20:30N 44°41' E 020°57'0 0.0
2018-Jun-13 20:00N 44°41' E 020°57'0 0.0
2018-Jun-13 19:29N 44°41' E 020°57'0 0.0
2018-Jun-13 19:00N 44°41' E 020°57'0 0.0
2018-Jun-13 18:31N 44°41' E 020°57'0 0.0
2018-Jun-13 18:00N 44°41' E 020°57'0 0.0
2018-Jun-13 17:30N 44°41' E 020°57'0 0.0
2018-Jun-13 17:01N 44°41' E 020°57'0 0.0
2018-Jun-13 16:30N 44°41' E 020°57'0 0.0
2018-Jun-13 16:00N 44°41' E 020°57'0 0.0
2018-Jun-13 15:30N 44°41' E 020°57'0 0.0
2018-Jun-13 15:00N 44°41' E 020°57'0 0.0
2018-Jun-13 14:30N 44°41' E 020°57'0 0.0
2018-Jun-13 14:00N 44°41' E 020°57'0 0.0
2018-Jun-13 13:30N 44°41' E 020°57'0 0.0
2018-Jun-13 13:00N 44°41' E 020°57'0 0.0
2018-Jun-13 12:29N 44°41' E 020°57'0 0.0
2018-Jun-13 12:00N 44°41' E 020°57'0 0.0
2018-Jun-13 11:30N 44°41' E 020°57'0 0.0
2018-Jun-13 11:00N 44°41' E 020°57'0 0.0
2018-Jun-13 10:30N 44°41' E 020°57'0 0.0
2018-Jun-13 09:31N 44°41' E 020°57'0 0.0
2018-Jun-13 09:29N 44°41' E 020°57'0 0.0
2018-Jun-12 21:52N 44°41' E 020°57'0 0.0
2018-Jun-12 21:30N 44°41' E 020°57'0 0.0
2018-Jun-12 21:00N 44°41' E 020°57'0 0.0
2018-Jun-12 20:30N 44°41' E 020°57'0 0.0
2018-Jun-12 20:00N 44°41' E 020°57'0 0.0
2018-Jun-12 19:30N 44°41' E 020°57'0 0.0
2018-Jun-12 19:00N 44°41' E 020°57'0 0.0
2018-Jun-12 18:30N 44°41' E 020°57'0 0.0
2018-Jun-12 18:00N 44°41' E 020°57'0 0.0
2018-Jun-12 17:30N 44°41' E 020°57'0 0.0
2018-Jun-12 16:58N 44°41' E 020°57'0 0.0
2018-Jun-12 16:30N 44°41' E 020°57'0 0.0
2018-Jun-12 16:00N 44°41' E 020°57'0 0.0
2018-Jun-12 15:30N 44°41' E 020°57'0 0.0
2018-Jun-12 15:00N 44°41' E 020°57'0 0.0
2018-Jun-12 14:30N 44°41' E 020°57'0 0.0
2018-Jun-12 14:00N 44°41' E 020°57'0 0.0
2018-Jun-12 13:30N 44°41' E 020°57'0 0.0
2018-Jun-12 13:00N 44°41' E 020°57'0 0.0
2018-Jun-12 12:31N 44°41' E 020°57'0 0.0
2018-Jun-12 12:00N 44°41' E 020°57'0 0.0
2018-Jun-12 11:30N 44°41' E 020°57'0 0.3
2018-Jun-12 11:01N 44°41' E 020°57'0 0.0
2018-Jun-12 10:30N 44°41' E 020°57'0 0.0
2018-Jun-12 10:00N 44°41' E 020°57'4 2.2
2018-Jun-12 08:13N 44°43' E 021°01'21 1.8
2018-Jun-11 20:14N 44°46' E 021°31'  

Dump ship's entire track history